sensor_id;sensor_type;location;lat;lon;timestamp;pressure;altitude;pressure_sealevel;temperature;humidity
40205;BME280;26963;42.666;23.366;2022-10-18T00:01:16;96469.00;;;10.37;49.13
40205;BME280;26963;42.666;23.366;2022-10-18T00:03:45;96473.75;;;10.35;48.94
40205;BME280;26963;42.666;23.366;2022-10-18T00:06:16;96493.16;;;10.47;49.11
40205;BME280;26963;42.666;23.366;2022-10-18T00:08:47;96367.66;;;9.63;48.89
40205;BME280;26963;42.666;23.366;2022-10-18T00:11:15;96473.75;;;10.35;49.55
40205;BME280;26963;42.666;23.366;2022-10-18T00:13:51;96412.38;;;9.95;49.59
40205;BME280;26963;42.666;23.366;2022-10-18T00:16:20;96470.28;;;10.34;49.73
40205;BME280;26963;42.666;23.366;2022-10-18T00:18:48;96477.50;;;10.34;49.71
40205;BME280;26963;42.666;23.366;2022-10-18T00:21:34;96465.66;;;10.29;49.94
40205;BME280;26963;42.666;23.366;2022-10-18T00:23:59;96454.34;;;10.17;50.00
40205;BME280;26963;42.666;23.366;2022-10-18T00:26:43;96457.53;;;10.19;50.21
40205;BME280;26963;42.666;23.366;2022-10-18T00:29:18;96458.13;;;10.21;50.38
40205;BME280;26963;42.666;23.366;2022-10-18T00:31:43;96453.25;;;10.18;49.97
40205;BME280;26963;42.666;23.366;2022-10-18T00:34:16;96450.84;;;10.17;50.13
40205;BME280;26963;42.666;23.366;2022-10-18T00:36:42;96451.84;;;10.10;50.28
40205;BME280;26963;42.666;23.366;2022-10-18T00:39:14;96441.25;;;9.93;49.98
40205;BME280;26963;42.666;23.366;2022-10-18T00:41:40;96421.84;;;9.81;50.49
40205;BME280;26963;42.666;23.366;2022-10-18T00:46:44;96422.34;;;9.78;50.68
40205;BME280;26963;42.666;23.366;2022-10-18T00:51:58;96443.78;;;9.83;50.67
40205;BME280;26963;42.666;23.366;2022-10-18T00:54:29;96439.38;;;9.72;50.16
40205;BME280;26963;42.666;23.366;2022-10-18T00:57:06;96443.13;;;9.71;50.71
40205;BME280;26963;42.666;23.366;2022-10-18T00:59:38;96429.69;;;9.66;51.11
40205;BME280;26963;42.666;23.366;2022-10-18T01:02:15;96416.75;;;9.57;51.37
40205;BME280;26963;42.666;23.366;2022-10-18T01:04:45;96429.75;;;9.71;51.05
40205;BME280;26963;42.666;23.366;2022-10-18T01:10:48;96416.63;;;9.47;51.47
40205;BME280;26963;42.666;23.366;2022-10-18T01:16:03;96425.22;;;9.49;51.45
40205;BME280;26963;42.666;23.366;2022-10-18T01:21:49;96420.91;;;9.48;51.80
40205;BME280;26963;42.666;23.366;2022-10-18T01:24:57;96420.84;;;9.43;51.92
40205;BME280;26963;42.666;23.366;2022-10-18T01:33:19;96334.09;;;8.84;51.44
40205;BME280;26963;42.666;23.366;2022-10-18T01:35:59;96394.69;;;9.23;51.63
40205;BME280;26963;42.666;23.366;2022-10-18T01:38:31;96409.53;;;9.36;52.90
40205;BME280;26963;42.666;23.366;2022-10-18T01:41:17;96402.09;;;9.38;52.14
40205;BME280;26963;42.666;23.366;2022-10-18T01:43:45;96411.16;;;9.37;52.07
40205;BME280;26963;42.666;23.366;2022-10-18T01:46:16;96349.97;;;8.91;51.78
40205;BME280;26963;42.666;23.366;2022-10-18T01:48:46;96336.22;;;8.82;52.25
40205;BME280;26963;42.666;23.366;2022-10-18T01:51:16;96321.50;;;8.79;52.83
40205;BME280;26963;42.666;23.366;2022-10-18T01:53:42;96387.34;;;9.13;51.80
40205;BME280;26963;42.666;23.366;2022-10-18T02:02:05;96402.97;;;9.21;52.58
40205;BME280;26963;42.666;23.366;2022-10-18T02:04:48;96403.50;;;9.23;52.96
40205;BME280;26963;42.666;23.366;2022-10-18T02:10:17;96397.34;;;9.23;52.54
40205;BME280;26963;42.666;23.366;2022-10-18T02:12:59;96324.38;;;8.73;52.59
40205;BME280;26963;42.666;23.366;2022-10-18T02:15:34;96375.28;;;9.10;52.14
40205;BME280;26963;42.666;23.366;2022-10-18T02:18:10;96377.22;;;9.15;51.97
40205;BME280;26963;42.666;23.366;2022-10-18T02:20:42;96373.59;;;9.21;51.55
40205;BME280;26963;42.666;23.366;2022-10-18T02:23:13;96349.91;;;9.08;51.23
40205;BME280;26963;42.666;23.366;2022-10-18T02:25:39;96296.59;;;8.74;51.27
40205;BME280;26963;42.666;23.366;2022-10-18T02:28:11;96393.50;;;9.36;51.34
40205;BME280;26963;42.666;23.366;2022-10-18T02:30:49;96349.66;;;9.09;51.55
40205;BME280;26963;42.666;23.366;2022-10-18T02:33:41;96385.25;;;9.37;51.50
40205;BME280;26963;42.666;23.366;2022-10-18T02:36:18;96384.38;;;9.32;51.39
40205;BME280;26963;42.666;23.366;2022-10-18T02:38:47;96395.66;;;9.34;51.31
40205;BME280;26963;42.666;23.366;2022-10-18T02:41:25;96300.34;;;8.73;51.52
40205;BME280;26963;42.666;23.366;2022-10-18T02:43:57;96394.03;;;9.33;51.02
40205;BME280;26963;42.666;23.366;2022-10-18T02:46:25;96320.22;;;8.82;51.46
40205;BME280;26963;42.666;23.366;2022-10-18T02:48:54;96386.81;;;9.11;51.79
40205;BME280;26963;42.666;23.366;2022-10-18T02:51:24;96401.69;;;9.07;51.69
40205;BME280;26963;42.666;23.366;2022-10-18T02:53:53;96403.63;;;9.11;51.93
40205;BME280;26963;42.666;23.366;2022-10-18T02:56:21;96399.00;;;9.07;52.38
40205;BME280;26963;42.666;23.366;2022-10-18T02:58:49;96373.09;;;8.85;52.37
40205;BME280;26963;42.666;23.366;2022-10-18T03:01:23;96401.53;;;8.96;52.62
40205;BME280;26963;42.666;23.366;2022-10-18T03:03:51;96401.59;;;9.02;52.67
40205;BME280;26963;42.666;23.366;2022-10-18T03:06:20;96387.72;;;8.82;53.26
40205;BME280;26963;42.666;23.366;2022-10-18T03:08:55;96389.16;;;8.90;53.33
40205;BME280;26963;42.666;23.366;2022-10-18T03:11:20;96329.13;;;8.54;52.59
40205;BME280;26963;42.666;23.366;2022-10-18T03:13:52;96384.25;;;8.82;52.43
40205;BME280;26963;42.666;23.366;2022-10-18T03:16:23;96390.78;;;8.91;52.54
40205;BME280;26963;42.666;23.366;2022-10-18T03:18:49;96392.97;;;8.94;52.20
40205;BME280;26963;42.666;23.366;2022-10-18T03:21:22;96363.75;;;8.65;52.73
40205;BME280;26963;42.666;23.366;2022-10-18T03:23:51;96351.03;;;8.56;52.57
40205;BME280;26963;42.666;23.366;2022-10-18T03:26:34;96350.31;;;8.60;53.04
40205;BME280;26963;42.666;23.366;2022-10-18T03:29:00;96366.47;;;8.71;52.84
40205;BME280;26963;42.666;23.366;2022-10-18T03:31:29;96375.06;;;8.73;52.99
40205;BME280;26963;42.666;23.366;2022-10-18T03:33:59;96366.41;;;8.65;52.69
40205;BME280;26963;42.666;23.366;2022-10-18T03:36:25;96371.16;;;8.63;53.00
40205;BME280;26963;42.666;23.366;2022-10-18T03:38:51;96324.44;;;8.27;52.86
40205;BME280;26963;42.666;23.366;2022-10-18T03:41:17;96351.13;;;8.44;52.91
40205;BME280;26963;42.666;23.366;2022-10-18T03:43:43;96375.38;;;8.59;53.95
40205;BME280;26963;42.666;23.366;2022-10-18T03:46:12;96384.94;;;8.55;53.58
40205;BME280;26963;42.666;23.366;2022-10-18T03:48:38;96402.53;;;8.73;52.71
40205;BME280;26963;42.666;23.366;2022-10-18T03:51:14;96403.00;;;8.70;52.84
40205;BME280;26963;42.666;23.366;2022-10-18T03:53:39;96373.44;;;8.55;53.00
40205;BME280;26963;42.666;23.366;2022-10-18T03:56:18;96392.03;;;8.67;52.85
40205;BME280;26963;42.666;23.366;2022-10-18T03:58:44;96334.31;;;8.26;52.44
40205;BME280;26963;42.666;23.366;2022-10-18T04:01:12;96404.81;;;8.64;52.65
40205;BME280;26963;42.666;23.366;2022-10-18T04:03:40;96410.16;;;8.64;52.65
40205;BME280;26963;42.666;23.366;2022-10-18T04:06:12;96397.88;;;8.46;52.78
40205;BME280;26963;42.666;23.366;2022-10-18T04:08:40;96396.94;;;8.41;52.89
40205;BME280;26963;42.666;23.366;2022-10-18T04:11:09;96405.41;;;8.38;52.92
40205;BME280;26963;42.666;23.366;2022-10-18T04:13:37;96401.53;;;8.28;53.23
40205;BME280;26963;42.666;23.366;2022-10-18T04:16:07;96408.00;;;8.32;53.00
40205;BME280;26963;42.666;23.366;2022-10-18T04:18:39;96400.97;;;8.26;53.24
40205;BME280;26963;42.666;23.366;2022-10-18T04:21:09;96350.75;;;7.89;53.43
40205;BME280;26963;42.666;23.366;2022-10-18T04:23:59;96396.59;;;8.20;53.58
40205;BME280;26963;42.666;23.366;2022-10-18T04:26:28;96403.63;;;8.26;53.86
40205;BME280;26963;42.666;23.366;2022-10-18T04:28:56;96395.06;;;8.24;53.70
40205;BME280;26963;42.666;23.366;2022-10-18T04:31:21;96399.94;;;8.27;53.68
40205;BME280;26963;42.666;23.366;2022-10-18T04:33:49;96391.34;;;8.25;53.41
40205;BME280;26963;42.666;23.366;2022-10-18T04:36:21;96396.38;;;8.39;52.77
40205;BME280;26963;42.666;23.366;2022-10-18T04:38:51;96375.09;;;8.27;52.64
40205;BME280;26963;42.666;23.366;2022-10-18T04:41:23;96384.97;;;8.26;52.58
40205;BME280;26963;42.666;23.366;2022-10-18T04:43:55;96390.22;;;8.38;53.06
40205;BME280;26963;42.666;23.366;2022-10-18T04:46:26;96384.41;;;8.41;53.06
40205;BME280;26963;42.666;23.366;2022-10-18T04:48:51;96325.06;;;8.00;53.04
40205;BME280;26963;42.666;23.366;2022-10-18T04:51:17;96330.75;;;8.04;53.28
40205;BME280;26963;42.666;23.366;2022-10-18T04:53:47;96381.50;;;8.43;53.76
40205;BME280;26963;42.666;23.366;2022-10-18T04:56:15;96382.28;;;8.43;52.98
40205;BME280;26963;42.666;23.366;2022-10-18T04:58:46;96308.03;;;8.01;53.54
40205;BME280;26963;42.666;23.366;2022-10-18T05:01:14;96345.44;;;8.23;53.50
40205;BME280;26963;42.666;23.366;2022-10-18T05:03:41;96341.25;;;8.27;53.04
40205;BME280;26963;42.666;23.366;2022-10-18T05:06:13;96369.22;;;8.42;52.84
40205;BME280;26963;42.666;23.366;2022-10-18T05:08:57;96380.56;;;8.49;53.11
40205;BME280;26963;42.666;23.366;2022-10-18T05:11:29;96378.38;;;8.46;52.99
40205;BME280;26963;42.666;23.366;2022-10-18T05:13:55;96381.13;;;8.51;53.19
40205;BME280;26963;42.666;23.366;2022-10-18T05:16:36;96328.47;;;8.12;53.65
40205;BME280;26963;42.666;23.366;2022-10-18T05:19:06;96371.88;;;8.42;53.59
40205;BME280;26963;42.666;23.366;2022-10-18T05:21:43;96374.22;;;8.38;53.36
40205;BME280;26963;42.666;23.366;2022-10-18T05:24:16;96369.06;;;8.31;53.93
40205;BME280;26963;42.666;23.366;2022-10-18T05:26:56;96294.50;;;7.74;54.17
40205;BME280;26963;42.666;23.366;2022-10-18T05:29:24;96393.44;;;8.23;54.46
40205;BME280;26963;42.666;23.366;2022-10-18T05:31:50;96333.28;;;7.81;55.08
40205;BME280;26963;42.666;23.366;2022-10-18T05:34:36;96385.19;;;8.08;55.52
40205;BME280;26963;42.666;23.366;2022-10-18T05:40:37;96377.59;;;7.71;55.34
40205;BME280;26963;42.666;23.366;2022-10-18T05:43:03;96399.69;;;7.83;55.61
40205;BME280;26963;42.666;23.366;2022-10-18T05:45:32;96402.09;;;7.84;55.95
40205;BME280;26963;42.666;23.366;2022-10-18T05:47:57;96402.44;;;7.88;56.03
40205;BME280;26963;42.666;23.366;2022-10-18T05:52:58;96388.94;;;7.66;56.32
40205;BME280;26963;42.666;23.366;2022-10-18T05:55:27;96388.63;;;7.62;56.45
40205;BME280;26963;42.666;23.366;2022-10-18T05:57:52;96388.63;;;7.62;56.66
40205;BME280;26963;42.666;23.366;2022-10-18T06:00:21;96388.16;;;7.65;56.12
40205;BME280;26963;42.666;23.366;2022-10-18T06:02:47;96387.53;;;7.75;55.99
40205;BME280;26963;42.666;23.366;2022-10-18T06:05:12;96403.72;;;7.86;56.47
40205;BME280;26963;42.666;23.366;2022-10-18T06:07:41;96217.94;;;6.77;55.97
40205;BME280;26963;42.666;23.366;2022-10-18T06:10:14;96392.41;;;7.95;55.74
40205;BME280;26963;42.666;23.366;2022-10-18T06:12:42;96380.66;;;8.08;55.70
40205;BME280;26963;42.666;23.366;2022-10-18T06:15:08;96343.41;;;7.96;55.23
40205;BME280;26963;42.666;23.366;2022-10-18T06:17:34;96396.38;;;8.39;55.25
40205;BME280;26963;42.666;23.366;2022-10-18T06:19:59;96317.78;;;7.95;54.82
40205;BME280;26963;42.666;23.366;2022-10-18T06:22:25;96390.06;;;8.45;55.05
40205;BME280;26963;42.666;23.366;2022-10-18T06:24:51;96390.75;;;8.52;54.91
40205;BME280;26963;42.666;23.366;2022-10-18T06:27:27;96361.78;;;8.44;54.65
40205;BME280;26963;42.666;23.366;2022-10-18T06:32:44;96369.88;;;9.05;53.47
40205;BME280;26963;42.666;23.366;2022-10-18T06:35:12;96369.06;;;9.44;52.44
40205;BME280;26963;42.666;23.366;2022-10-18T06:37:38;96386.75;;;10.00;51.70
40205;BME280;26963;42.666;23.366;2022-10-18T06:40:04;96366.47;;;10.31;50.11
40205;BME280;26963;42.666;23.366;2022-10-18T06:42:57;96378.88;;;10.80;48.63
40205;BME280;26963;42.666;23.366;2022-10-18T06:45:26;96369.84;;;10.91;48.70
40205;BME280;26963;42.666;23.366;2022-10-18T06:48:00;96363.56;;;11.18;47.85
40205;BME280;26963;42.666;23.366;2022-10-18T06:50:26;96347.03;;;11.32;47.44
40205;BME280;26963;42.666;23.366;2022-10-18T06:52:57;96374.53;;;11.85;45.94
40205;BME280;26963;42.666;23.366;2022-10-18T06:55:26;96366.53;;;11.96;45.82
40205;BME280;26963;42.666;23.366;2022-10-18T06:57:52;96384.53;;;12.11;45.74
40205;BME280;26963;42.666;23.366;2022-10-18T07:00:20;96370.63;;;12.19;45.36
40205;BME280;26963;42.666;23.366;2022-10-18T07:02:45;96341.91;;;12.19;45.30
40205;BME280;26963;42.666;23.366;2022-10-18T07:05:14;96369.81;;;12.60;44.77
40205;BME280;26963;42.666;23.366;2022-10-18T07:07:48;96346.19;;;12.62;44.98
40205;BME280;26963;42.666;23.366;2022-10-18T07:10:14;96341.59;;;12.78;45.04
40205;BME280;26963;42.666;23.366;2022-10-18T07:12:42;96298.91;;;12.76;44.06
40205;BME280;26963;42.666;23.366;2022-10-18T07:15:08;96366.97;;;13.42;43.76
40205;BME280;26963;42.666;23.366;2022-10-18T07:17:38;96357.25;;;13.62;42.52
40205;BME280;26963;42.666;23.366;2022-10-18T07:20:07;96332.44;;;13.70;42.30
40205;BME280;26963;42.666;23.366;2022-10-18T07:22:32;96372.47;;;14.27;41.79
40205;BME280;26963;42.666;23.366;2022-10-18T07:24:58;96367.41;;;14.55;41.67
40205;BME280;26963;42.666;23.366;2022-10-18T07:27:45;96374.63;;;14.94;41.46
40205;BME280;26963;42.666;23.366;2022-10-18T07:30:10;96354.56;;;15.05;39.58
40205;BME280;26963;42.666;23.366;2022-10-18T07:32:36;96340.41;;;15.19;39.07
40205;BME280;26963;42.666;23.366;2022-10-18T07:35:05;96345.06;;;15.37;38.77
40205;BME280;26963;42.666;23.366;2022-10-18T07:37:33;96358.81;;;15.79;38.82
40205;BME280;26963;42.666;23.366;2022-10-18T07:40:02;96340.66;;;15.90;38.29
40205;BME280;26963;42.666;23.366;2022-10-18T07:42:34;96350.25;;;16.34;38.09
40205;BME280;26963;42.666;23.366;2022-10-18T07:45:08;96336.31;;;16.60;37.36
40205;BME280;26963;42.666;23.366;2022-10-18T07:47:33;96347.81;;;16.99;36.40
40205;BME280;26963;42.666;23.366;2022-10-18T07:50:23;96331.44;;;17.23;36.01
40205;BME280;26963;42.666;23.366;2022-10-18T07:52:54;96319.00;;;17.22;35.40
40205;BME280;26963;42.666;23.366;2022-10-18T07:55:23;96317.59;;;17.38;35.48
40205;BME280;26963;42.666;23.366;2022-10-18T07:57:59;96331.91;;;17.67;35.22
40205;BME280;26963;42.666;23.366;2022-10-18T08:00:24;96313.38;;;17.60;34.80
40205;BME280;26963;42.666;23.366;2022-10-18T08:02:57;96289.28;;;17.72;34.37
40205;BME280;26963;42.666;23.366;2022-10-18T08:05:28;96298.75;;;17.61;34.70
40205;BME280;26963;42.666;23.366;2022-10-18T08:07:55;96313.38;;;17.60;34.70
40205;BME280;26963;42.666;23.366;2022-10-18T08:10:33;96312.38;;;17.56;35.45
40205;BME280;26963;42.666;23.366;2022-10-18T08:12:59;96325.59;;;17.71;35.20
40205;BME280;26963;42.666;23.366;2022-10-18T08:15:25;96317.75;;;17.84;34.97
40205;BME280;26963;42.666;23.366;2022-10-18T08:17:51;96314.53;;;17.82;35.01
40205;BME280;26963;42.666;23.366;2022-10-18T08:20:25;96301.38;;;17.89;34.99
40205;BME280;26963;42.666;23.366;2022-10-18T08:22:53;96314.63;;;18.27;34.65
40205;BME280;26963;42.666;23.366;2022-10-18T08:25:28;96257.22;;;18.25;34.32
40205;BME280;26963;42.666;23.366;2022-10-18T08:28:13;96167.75;;;17.85;34.29
40205;BME280;26963;42.666;23.366;2022-10-18T08:30:44;96286.47;;;18.68;34.77
40205;BME280;26963;42.666;23.366;2022-10-18T08:33:18;96261.72;;;18.30;34.13
40205;BME280;26963;42.666;23.366;2022-10-18T08:35:53;96231.41;;;18.28;34.93
40205;BME280;26963;42.666;23.366;2022-10-18T08:38:19;96274.06;;;18.67;34.60
40205;BME280;26963;42.666;23.366;2022-10-18T08:40:51;96288.94;;;18.79;34.58
40205;BME280;26963;42.666;23.366;2022-10-18T08:43:39;96275.97;;;18.98;34.15
40205;BME280;26963;42.666;23.366;2022-10-18T08:46:18;96267.84;;;18.98;34.07
40205;BME280;26963;42.666;23.366;2022-10-18T08:48:53;96250.38;;;19.22;33.65
40205;BME280;26963;42.666;23.366;2022-10-18T08:54:12;96241.47;;;19.48;33.41
40205;BME280;26963;42.666;23.366;2022-10-18T08:56:48;96257.47;;;19.76;33.42
40205;BME280;26963;42.666;23.366;2022-10-18T08:59:21;96246.25;;;19.68;32.22
40205;BME280;26963;42.666;23.366;2022-10-18T09:04:59;96249.41;;;19.18;33.20
40205;BME280;26963;42.666;23.366;2022-10-18T09:08:01;96238.34;;;19.05;34.19
40205;BME280;26963;42.666;23.366;2022-10-18T09:20:02;96231.84;;;19.24;34.35
40205;BME280;26963;42.666;23.366;2022-10-18T09:22:55;96234.56;;;19.33;33.41
40205;BME280;26963;42.666;23.366;2022-10-18T09:28:15;96235.41;;;19.51;34.40
40205;BME280;26963;42.666;23.366;2022-10-18T09:36:04;96208.25;;;19.68;33.34
40205;BME280;26963;42.666;23.366;2022-10-18T09:38:42;96198.03;;;19.48;33.38
40205;BME280;26963;42.666;23.366;2022-10-18T09:41:19;96148.53;;;19.16;33.16
40205;BME280;26963;42.666;23.366;2022-10-18T09:46:52;96196.91;;;19.40;33.99
40205;BME280;26963;42.666;23.366;2022-10-18T09:49:42;96200.91;;;19.43;33.26
40205;BME280;26963;42.666;23.366;2022-10-18T09:52:17;96189.69;;;19.27;33.80
40205;BME280;26963;42.666;23.366;2022-10-18T09:54:59;96185.59;;;19.29;34.09
40205;BME280;26963;42.666;23.366;2022-10-18T09:57:55;96082.41;;;18.77;33.44
40205;BME280;26963;42.666;23.366;2022-10-18T10:00:30;96190.56;;;19.53;33.08
40205;BME280;26963;42.666;23.366;2022-10-18T10:02:57;96188.13;;;19.52;32.86
40205;BME280;26963;42.666;23.366;2022-10-18T10:05:27;96131.00;;;19.22;32.87
40205;BME280;26963;42.666;23.366;2022-10-18T10:07:58;96184.63;;;19.78;31.58
40205;BME280;26963;42.666;23.366;2022-10-18T10:10:28;96157.66;;;19.99;31.36
40205;BME280;26963;42.666;23.366;2022-10-18T10:13:15;96165.75;;;20.08;30.90
40205;BME280;26963;42.666;23.366;2022-10-18T10:15:53;96087.84;;;19.64;31.42
40205;BME280;26963;42.666;23.366;2022-10-18T10:20:48;96150.41;;;20.12;30.39
40205;BME280;26963;42.666;23.366;2022-10-18T10:28:45;96123.25;;;20.12;28.09
40205;BME280;26963;42.666;23.366;2022-10-18T10:31:29;96123.66;;;20.31;29.26
40205;BME280;26963;42.666;23.366;2022-10-18T10:34:03;96106.56;;;20.31;27.48
40205;BME280;26963;42.666;23.366;2022-10-18T10:36:53;96109.84;;;20.45;29.39
40205;BME280;26963;42.666;23.366;2022-10-18T10:39:21;96099.78;;;20.46;27.59
40205;BME280;26963;42.666;23.366;2022-10-18T10:41:49;96090.22;;;20.40;26.94
40205;BME280;26963;42.666;23.366;2022-10-18T10:44:18;96100.63;;;20.29;26.54
40205;BME280;26963;42.666;23.366;2022-10-18T10:46:45;96078.75;;;20.25;26.93
40205;BME280;26963;42.666;23.366;2022-10-18T10:49:21;96076.19;;;20.29;26.31
40205;BME280;26963;42.666;23.366;2022-10-18T10:52:04;96076.66;;;20.31;26.77
40205;BME280;26963;42.666;23.366;2022-10-18T10:54:37;96078.13;;;20.28;25.60
40205;BME280;26963;42.666;23.366;2022-10-18T11:00:38;96028.72;;;20.26;24.38
40205;BME280;26963;42.666;23.366;2022-10-18T11:03:14;96074.22;;;20.68;24.45
40205;BME280;26963;42.666;23.366;2022-10-18T11:05:47;96027.38;;;20.41;24.43
40205;BME280;26963;42.666;23.366;2022-10-18T11:08:42;96021.00;;;20.37;24.11
40205;BME280;26963;42.666;23.366;2022-10-18T11:11:19;96050.09;;;20.66;24.29
40205;BME280;26963;42.666;23.366;2022-10-18T11:14:01;96048.78;;;20.73;23.87
40205;BME280;26963;42.666;23.366;2022-10-18T11:19:10;96033.25;;;20.73;23.64
40205;BME280;26963;42.666;23.366;2022-10-18T11:21:41;96036.47;;;20.75;22.69
40205;BME280;26963;42.666;23.366;2022-10-18T11:24:15;95909.25;;;19.79;22.91
40205;BME280;26963;42.666;23.366;2022-10-18T11:27:17;96010.00;;;20.54;22.84
40205;BME280;26963;42.666;23.366;2022-10-18T11:29:54;96025.81;;;20.61;22.69
40205;BME280;26963;42.666;23.366;2022-10-18T11:35:44;95960.81;;;20.47;21.99
40205;BME280;26963;42.666;23.366;2022-10-18T11:41:49;95948.88;;;20.61;21.73
40205;BME280;26963;42.666;23.366;2022-10-18T11:44:32;95979.53;;;20.91;21.59
40205;BME280;26963;42.666;23.366;2022-10-18T12:01:37;95951.81;;;20.98;18.19
40205;BME280;26963;42.666;23.366;2022-10-18T12:04:26;95961.91;;;21.10;18.66
40205;BME280;26963;42.666;23.366;2022-10-18T12:07:00;95953.09;;;21.13;18.66
40205;BME280;26963;42.666;23.366;2022-10-18T12:09:35;95958.28;;;21.06;18.89
40205;BME280;26963;42.666;23.366;2022-10-18T12:15:01;95939.69;;;21.08;17.62
40205;BME280;26963;42.666;23.366;2022-10-18T12:17:34;95934.25;;;21.08;16.56
40205;BME280;26963;42.666;23.366;2022-10-18T12:20:23;95904.47;;;20.78;17.41
40205;BME280;26963;42.666;23.366;2022-10-18T12:25:27;95917.63;;;20.88;17.70
40205;BME280;26963;42.666;23.366;2022-10-18T12:33:55;95905.97;;;20.66;16.39
40205;BME280;26963;42.666;23.366;2022-10-18T12:39:52;95858.56;;;20.34;16.67
40205;BME280;26963;42.666;23.366;2022-10-18T12:42:27;95876.88;;;20.46;16.22
40205;BME280;26963;42.666;23.366;2022-10-18T12:47:33;95885.75;;;20.55;16.12
40205;BME280;26963;42.666;23.366;2022-10-18T12:50:28;95882.22;;;20.54;16.55
40205;BME280;26963;42.666;23.366;2022-10-18T12:55:36;95886.56;;;20.34;16.07
40205;BME280;26963;42.666;23.366;2022-10-18T12:58:10;95895.84;;;20.33;16.25
40205;BME280;26963;42.666;23.366;2022-10-18T13:06:07;95882.59;;;20.32;15.78
40205;BME280;26963;42.666;23.366;2022-10-18T13:08:39;95872.22;;;20.25;16.49
40205;BME280;26963;42.666;23.366;2022-10-18T13:11:23;95872.91;;;20.22;16.20
40205;BME280;26963;42.666;23.366;2022-10-18T13:14:24;95858.19;;;20.02;16.25
40205;BME280;26963;42.666;23.366;2022-10-18T13:17:11;95857.13;;;19.94;16.25
40205;BME280;26963;42.666;23.366;2022-10-18T13:22:41;95806.44;;;19.68;16.25
40205;BME280;26963;42.666;23.366;2022-10-18T13:33:39;95835.22;;;19.61;16.55
40205;BME280;26963;42.666;23.366;2022-10-18T13:41:26;95788.59;;;19.37;16.72
40205;BME280;26963;42.666;23.366;2022-10-18T13:55:32;95826.22;;;19.78;15.89
40205;BME280;26963;42.666;23.366;2022-10-18T13:58:36;95822.69;;;19.77;16.15
40205;BME280;26963;42.666;23.366;2022-10-18T14:06:44;95808.72;;;19.66;16.96
40205;BME280;26963;42.666;23.366;2022-10-18T14:09:25;95758.84;;;19.20;16.79
40205;BME280;26963;42.666;23.366;2022-10-18T14:11:57;95818.84;;;19.57;16.73
40205;BME280;26963;42.666;23.366;2022-10-18T14:14:31;95807.22;;;19.48;16.49
40205;BME280;26963;42.666;23.366;2022-10-18T14:19:45;95817.91;;;19.74;17.07
40205;BME280;26963;42.666;23.366;2022-10-18T14:25:31;95758.31;;;19.27;17.41
40205;BME280;26963;42.666;23.366;2022-10-18T14:28:14;95799.50;;;19.59;17.27
40205;BME280;26963;42.666;23.366;2022-10-18T14:31:01;95800.47;;;19.54;17.45
40205;BME280;26963;42.666;23.366;2022-10-18T14:33:40;95815.25;;;19.65;17.13
40205;BME280;26963;42.666;23.366;2022-10-18T14:41:16;95805.34;;;19.39;17.41
40205;BME280;26963;42.666;23.366;2022-10-18T14:43:45;95753.78;;;19.10;17.94
40205;BME280;26963;42.666;23.366;2022-10-18T14:46:23;95803.38;;;19.49;17.83
40205;BME280;26963;42.666;23.366;2022-10-18T14:49:00;95781.91;;;19.35;17.54
40205;BME280;26963;42.666;23.366;2022-10-18T14:51:48;95801.00;;;19.47;17.77
40205;BME280;26963;42.666;23.366;2022-10-18T14:54:17;95796.22;;;19.44;17.56
40205;BME280;26963;42.666;23.366;2022-10-18T14:56:44;95790.63;;;19.40;18.00
40205;BME280;26963;42.666;23.366;2022-10-18T14:59:20;95795.91;;;19.46;17.85
40205;BME280;26963;42.666;23.366;2022-10-18T15:04:17;95770.91;;;19.31;17.97
40205;BME280;26963;42.666;23.366;2022-10-18T15:06:43;95793.84;;;19.43;18.05
40205;BME280;26963;42.666;23.366;2022-10-18T15:09:11;95782.25;;;19.33;18.14
40205;BME280;26963;42.666;23.366;2022-10-18T15:11:39;95790.19;;;19.38;17.53
40205;BME280;26963;42.666;23.366;2022-10-18T15:14:13;95780.66;;;19.32;18.09
40205;BME280;26963;42.666;23.366;2022-10-18T15:16:44;95779.09;;;19.22;18.46
40205;BME280;26963;42.666;23.366;2022-10-18T15:21:57;95774.03;;;19.12;18.89
40205;BME280;26963;42.666;23.366;2022-10-18T15:27:28;95776.63;;;19.00;21.40
40205;BME280;26963;42.666;23.366;2022-10-18T15:29:55;95704.41;;;18.48;21.98
40205;BME280;26963;42.666;23.366;2022-10-18T15:32:29;95682.03;;;18.21;22.28
40205;BME280;26963;42.666;23.366;2022-10-18T15:35:07;95768.75;;;18.68;23.18
40205;BME280;26963;42.666;23.366;2022-10-18T15:37:44;95763.50;;;18.63;23.54
40205;BME280;26963;42.666;23.366;2022-10-18T15:42:58;95744.81;;;18.23;23.85
40205;BME280;26963;42.666;23.366;2022-10-18T15:56:05;95775.38;;;17.97;25.67
40205;BME280;26963;42.666;23.366;2022-10-18T15:58:41;95778.88;;;17.89;25.63
40205;BME280;26963;42.666;23.366;2022-10-18T16:01:20;95752.91;;;17.70;25.96
40205;BME280;26963;42.666;23.366;2022-10-18T16:03:47;95758.97;;;17.67;26.15
40205;BME280;26963;42.666;23.366;2022-10-18T16:06:17;95765.97;;;17.59;26.14
40205;BME280;26963;42.666;23.366;2022-10-18T16:08:49;95782.50;;;17.67;26.23
40205;BME280;26963;42.666;23.366;2022-10-18T16:11:18;95749.19;;;17.31;25.90
40205;BME280;26963;42.666;23.366;2022-10-18T16:13:53;95794.72;;;17.47;26.88
40205;BME280;26963;42.666;23.366;2022-10-18T16:16:24;95799.66;;;17.44;26.76
40205;BME280;26963;42.666;23.366;2022-10-18T16:18:50;95775.44;;;17.22;26.70
40205;BME280;26963;42.666;23.366;2022-10-18T16:21:19;95759.16;;;17.04;27.28
40205;BME280;26963;42.666;23.366;2022-10-18T16:23:46;95798.94;;;17.21;26.53
40205;BME280;26963;42.666;23.366;2022-10-18T16:26:29;95801.97;;;17.20;26.83
40205;BME280;26963;42.666;23.366;2022-10-18T16:28:56;95802.44;;;17.13;27.40
40205;BME280;26963;42.666;23.366;2022-10-18T16:31:26;95794.13;;;17.01;26.88
40205;BME280;26963;42.666;23.366;2022-10-18T16:33:55;95747.97;;;16.57;26.80
40205;BME280;26963;42.666;23.366;2022-10-18T16:36:31;95794.81;;;16.84;26.96